Time;durP1;ratioP1;P1;durP2;ratioP2;P2;SDS_P1;SDS_P2;PMS_P1;PMS_P2;Temp;Humidity;BMP_temperature;BMP_pressure;BME280_temperature;BME280_humidity;BME280_pressure;Samples;Min_cycle;Max_cycle;Signal;HPM_P1;HPM_P2
2023/03/05 00:01:13;;;;;;;0.50;0.50;;;2.50;99.90;;;;;;5024122;28;20557;-83
2023/03/05 00:03:39;;;;;;;0.50;0.50;;;2.40;99.90;;;;;;5030889;28;20198;-83
2023/03/05 00:06:05;;;;;;;0.50;0.50;;;2.40;99.90;;;;;;5027484;28;20446;-82
2023/03/05 00:08:31;;;;;;;0.50;0.50;;;2.40;99.90;;;;;;5026375;28;20194;-83
2023/03/05 00:10:59;;;;;;;0.40;0.40;;;2.30;99.90;;;;;;5017438;28;20447;-82
2023/03/05 00:13:24;;;;;;;0.50;0.50;;;2.30;99.90;;;;;;5040483;28;20446;-83
2023/03/05 00:15:50;;;;;;;0.50;0.50;;;2.30;99.90;;;;;;5029644;28;21087;-82
2023/03/05 00:18:15;;;;;;;0.50;0.50;;;2.30;99.90;;;;;;5029967;28;20180;-83
2023/03/05 00:20:41;;;;;;;0.40;0.40;;;2.30;99.90;;;;;;5031908;28;20686;-83
2023/03/05 00:23:06;;;;;;;0.50;0.50;;;2.30;99.90;;;;;;5015586;28;20691;-82
2023/03/05 00:25:34;;;;;;;0.40;0.40;;;2.20;99.90;;;;;;5041393;28;20265;-82
2023/03/05 00:28:00;;;;;;;0.40;0.40;;;2.10;99.90;;;;;;5044369;28;20179;-83
2023/03/05 00:30:25;;;;;;;0.40;0.40;;;2.20;99.90;;;;;;5036170;28;21162;-83
2023/03/05 00:32:51;;;;;;;0.40;0.40;;;2.20;99.90;;;;;;5033237;28;20236;-83
2023/03/05 00:35:17;;;;;;;0.40;0.40;;;2.20;99.90;;;;;;5051558;28;20186;-83
2023/03/05 00:37:43;;;;;;;0.40;0.40;;;2.10;99.90;;;;;;5033522;28;20219;-83
2023/03/05 00:40:09;;;;;;;0.50;0.50;;;2.10;99.90;;;;;;5022067;28;20697;-82
2023/03/05 00:42:37;;;;;;;0.50;0.50;;;2.10;99.90;;;;;;4996145;28;20232;-83
2023/03/05 00:45:04;;;;;;;0.30;0.30;;;2.10;99.90;;;;;;5029343;28;20465;-82
2023/03/05 00:47:29;;;;;;;0.40;0.40;;;2.20;99.90;;;;;;5033590;28;20417;-83
2023/03/05 00:49:55;;;;;;;0.50;0.50;;;2.10;99.90;;;;;;5032194;28;20762;-83
2023/03/05 00:52:20;;;;;;;0.40;0.40;;;2.10;99.90;;;;;;5031830;28;20278;-82
2023/03/05 00:54:46;;;;;;;0.40;0.40;;;2.10;99.90;;;;;;5009945;28;20184;-82
2023/03/05 00:57:11;;;;;;;0.40;0.40;;;2.10;99.90;;;;;;5011737;28;22039;-82
2023/03/05 00:59:37;;;;;;;0.40;0.40;;;2.00;99.90;;;;;;5013085;28;20319;-82
2023/03/05 01:02:02;;;;;;;0.40;0.40;;;2.00;99.90;;;;;;5028586;28;20659;-83
2023/03/05 01:04:28;;;;;;;0.50;0.50;;;2.00;99.90;;;;;;5008852;28;20202;-83
2023/03/05 01:06:54;;;;;;;0.50;0.50;;;2.00;99.90;;;;;;5019427;28;20191;-83
2023/03/05 01:09:20;;;;;;;0.50;0.50;;;2.00;99.90;;;;;;5033376;28;20188;-83
2023/03/05 01:11:46;;;;;;;0.47;0.47;;;2.00;99.90;;;;;;5033027;28;20183;-83
2023/03/05 01:14:12;;;;;;;0.40;0.40;;;2.00;99.90;;;;;;5051164;28;20810;-82
2023/03/05 01:16:37;;;;;;;0.40;0.40;;;2.00;99.90;;;;;;5033232;28;20663;-83
2023/03/05 01:19:03;;;;;;;0.47;0.47;;;2.00;99.90;;;;;;5036501;28;20192;-82
2023/03/05 01:21:28;;;;;;;0.50;0.50;;;1.90;99.90;;;;;;5034986;28;20259;-82
2023/03/05 01:23:54;;;;;;;0.50;0.50;;;1.90;99.90;;;;;;5035223;28;20245;-83
2023/03/05 01:26:20;;;;;;;0.50;0.50;;;2.00;99.90;;;;;;5031460;28;20207;-83
2023/03/05 01:28:45;;;;;;;0.40;0.40;;;1.90;99.90;;;;;;5019314;28;20643;-83
2023/03/05 01:31:12;;;;;;;0.50;0.50;;;1.80;99.90;;;;;;5030428;28;20705;-82
2023/03/05 01:33:38;;;;;;;0.40;0.40;;;1.80;99.90;;;;;;5027861;28;20206;-82
2023/03/05 01:36:11;;;;;;;0.40;0.40;;;1.80;99.90;;;;;;5031868;28;20457;-83
2023/03/05 01:38:36;;;;;;;0.40;0.40;;;1.80;99.90;;;;;;5042634;28;20557;-83
2023/03/05 01:41:02;;;;;;;0.40;0.40;;;1.80;99.90;;;;;;5030004;28;20536;-83
2023/03/05 01:43:29;;;;;;;0.40;0.40;;;1.80;99.90;;;;;;5032328;28;20565;-83
2023/03/05 01:46:22;;;;;;;0.40;0.40;;;1.70;99.90;;;;;;5035404;28;20195;-82
2023/03/05 01:49:10;;;;;;;0.40;0.40;;;1.70;99.90;;;;;;5031807;28;20533;-83
2023/03/05 01:51:49;;;;;;;0.40;0.40;;;1.60;99.90;;;;;;5037309;28;20984;-82
2023/03/05 01:54:18;;;;;;;0.40;0.40;;;1.60;99.90;;;;;;5041355;28;20501;-83
2023/03/05 01:56:45;;;;;;;0.50;0.50;;;1.60;99.90;;;;;;5034426;28;20544;-83
2023/03/05 01:59:12;;;;;;;0.40;0.40;;;1.60;99.90;;;;;;5048867;28;20575;-82
2023/03/05 02:01:41;;;;;;;0.40;0.40;;;1.50;99.90;;;;;;5014952;28;20491;-82
2023/03/05 02:04:09;;;;;;;0.50;0.50;;;1.50;99.90;;;;;;5040424;28;20998;-83
2023/03/05 02:06:35;;;;;;;0.40;0.40;;;1.40;99.90;;;;;;5030051;28;20450;-82
2023/03/05 02:09:00;;;;;;;0.50;0.50;;;1.30;99.90;;;;;;5009758;28;20447;-82
2023/03/05 02:11:26;;;;;;;0.50;0.50;;;1.30;99.90;;;;;;5021503;28;20803;-83
2023/03/05 02:13:51;;;;;;;0.50;0.50;;;1.30;99.90;;;;;;5030778;28;20229;-82
2023/03/05 02:16:17;;;;;;;0.50;0.50;;;1.30;99.90;;;;;;5034785;28;20199;-83
2023/03/05 02:18:42;;;;;;;0.50;0.50;;;1.30;99.90;;;;;;5044960;28;20977;-82
2023/03/05 02:21:10;;;;;;;0.50;0.50;;;1.20;99.90;;;;;;5031144;28;20227;-83
2023/03/05 02:23:37;;;;;;;0.50;0.50;;;1.30;99.90;;;;;;5019030;28;20194;-82
2023/03/05 02:26:08;;;;;;;0.40;0.40;;;1.20;99.90;;;;;;5021553;28;20544;-82
2023/03/05 02:28:39;;;;;;;0.50;0.50;;;1.20;99.90;;;;;;5031778;28;20441;-82
2023/03/05 02:31:11;;;;;;;0.50;0.50;;;1.20;99.90;;;;;;5013051;28;20450;-82
2023/03/05 02:33:37;;;;;;;0.50;0.50;;;1.20;99.90;;;;;;5031260;28;20772;-82
2023/03/05 02:36:03;;;;;;;0.50;0.50;;;1.30;99.90;;;;;;5027572;28;20496;-82
2023/03/05 02:38:28;;;;;;;0.50;0.50;;;1.10;99.90;;;;;;5028892;28;20195;-83
2023/03/05 02:40:54;;;;;;;0.50;0.50;;;1.20;99.90;;;;;;5027446;28;20227;-82
2023/03/05 02:43:19;;;;;;;0.50;0.50;;;1.20;99.90;;;;;;5029251;28;20304;-82
2023/03/05 02:45:46;;;;;;;0.50;0.50;;;1.20;99.90;;;;;;5038904;28;20196;-82
2023/03/05 02:48:11;;;;;;;0.53;0.53;;;1.10;99.90;;;;;;5028747;28;20445;-83
2023/03/05 02:50:38;;;;;;;0.47;0.47;;;1.30;99.90;;;;;;5021096;28;20215;-82
2023/03/05 02:53:05;;;;;;;0.50;0.50;;;1.30;99.90;;;;;;5012805;28;20183;-83
2023/03/05 02:55:30;;;;;;;0.40;0.40;;;1.30;99.90;;;;;;5027353;28;20971;-83
2023/03/05 02:57:56;;;;;;;0.60;0.60;;;1.40;99.90;;;;;;5026980;28;20445;-82
2023/03/05 03:00:21;;;;;;;0.50;0.50;;;1.30;99.90;;;;;;5027701;28;20223;-82
2023/03/05 03:02:47;;;;;;;0.50;0.50;;;1.40;99.90;;;;;;5023915;28;20207;-83
2023/03/05 03:05:12;;;;;;;0.40;0.40;;;1.40;99.90;;;;;;5029488;28;20603;-83
2023/03/05 03:07:38;;;;;;;0.50;0.50;;;1.40;99.90;;;;;;5029042;28;20575;-82
2023/03/05 03:10:04;;;;;;;0.50;0.50;;;1.40;99.90;;;;;;5022614;28;20192;-82
2023/03/05 03:12:30;;;;;;;0.47;0.47;;;1.50;99.90;;;;;;5037523;28;20195;-82
2023/03/05 03:14:55;;;;;;;0.50;0.50;;;1.40;99.90;;;;;;5039517;28;20440;-83
2023/03/05 03:17:21;;;;;;;0.50;0.50;;;1.50;99.90;;;;;;5028011;28;20191;-82
2023/03/05 03:19:47;;;;;;;0.43;0.43;;;1.40;99.90;;;;;;5042665;28;20293;-82
2023/03/05 03:22:14;;;;;;;0.50;0.50;;;1.50;99.90;;;;;;5014152;28;20230;-82
2023/03/05 03:24:42;;;;;;;0.50;0.50;;;1.50;99.90;;;;;;5027237;28;20948;-82
2023/03/05 03:27:08;;;;;;;0.40;0.40;;;1.50;99.90;;;;;;5028490;28;20516;-82
2023/03/05 03:29:34;;;;;;;0.60;0.60;;;1.50;99.90;;;;;;5010760;28;20589;-82
2023/03/05 03:32:00;;;;;;;0.50;0.50;;;1.60;99.90;;;;;;5008772;28;20234;-82
2023/03/05 03:34:26;;;;;;;0.40;0.40;;;1.60;99.90;;;;;;5022088;28;20465;-82
2023/03/05 03:36:52;;;;;;;0.43;0.43;;;1.60;99.90;;;;;;5015486;28;20191;-83
2023/03/05 03:39:17;;;;;;;0.40;0.40;;;1.50;99.90;;;;;;5031582;28;20452;-82
2023/03/05 03:41:45;;;;;;;0.40;0.40;;;1.60;99.90;;;;;;5026986;28;20274;-83
2023/03/05 03:44:12;;;;;;;0.50;0.50;;;1.50;99.90;;;;;;5026813;28;20216;-84
2023/03/05 03:46:39;;;;;;;0.50;0.50;;;1.40;99.90;;;;;;5010352;28;20449;-83
2023/03/05 03:49:07;;;;;;;0.50;0.50;;;1.40;99.90;;;;;;5012467;28;20457;-82
2023/03/05 03:51:33;;;;;;;0.40;0.40;;;1.40;99.90;;;;;;5011408;28;21236;-82
2023/03/05 03:53:59;;;;;;;0.60;0.60;;;1.40;99.90;;;;;;5028818;28;20486;-82
2023/03/05 03:56:24;;;;;;;0.50;0.50;;;1.30;99.90;;;;;;5027512;28;20546;-82
2023/03/05 03:58:51;;;;;;;0.50;0.50;;;1.40;99.90;;;;;;5028408;28;20540;-82
2023/03/05 04:01:19;;;;;;;0.40;0.40;;;1.40;99.90;;;;;;5034271;28;20241;-82
2023/03/05 04:03:44;;;;;;;0.50;0.50;;;1.40;99.90;;;;;;5032430;28;20469;-82
2023/03/05 04:06:10;;;;;;;0.47;0.47;;;1.30;99.90;;;;;;5042884;28;20929;-82
2023/03/05 04:08:35;;;;;;;0.40;0.40;;;1.40;99.90;;;;;;5048597;28;20194;-83
2023/03/05 04:11:02;;;;;;;0.50;0.50;;;1.40;99.90;;;;;;5020146;28;20190;-82
2023/03/05 04:13:27;;;;;;;0.53;0.53;;;1.40;99.90;;;;;;5033932;28;20191;-83
2023/03/05 04:15:53;;;;;;;0.40;0.40;;;1.50;99.90;;;;;;5038864;28;20442;-83
2023/03/05 04:18:19;;;;;;;0.40;0.40;;;1.40;99.90;;;;;;5032400;28;20223;-82
2023/03/05 04:20:45;;;;;;;0.30;0.30;;;1.40;99.90;;;;;;5033367;28;20543;-83
2023/03/05 04:23:10;;;;;;;0.50;0.50;;;1.40;99.90;;;;;;5037152;28;20186;-82
2023/03/05 04:25:36;;;;;;;0.50;0.50;;;1.30;99.90;;;;;;5026563;28;20191;-82
2023/03/05 04:28:02;;;;;;;0.50;0.50;;;1.40;99.90;;;;;;5032249;28;20210;-82
2023/03/05 04:30:27;;;;;;;0.50;0.50;;;1.30;99.90;;;;;;5020517;28;20210;-83
2023/03/05 04:32:53;;;;;;;0.40;0.40;;;1.30;99.90;;;;;;5033304;28;20441;-83
2023/03/05 04:35:18;;;;;;;0.40;0.40;;;1.40;99.90;;;;;;5009342;28;20214;-82
2023/03/05 04:37:44;;;;;;;0.40;0.40;;;1.40;99.90;;;;;;5035785;28;20545;-82
2023/03/05 04:40:10;;;;;;;0.50;0.50;;;1.30;99.90;;;;;;5028971;28;20305;-82
2023/03/05 04:42:36;;;;;;;0.40;0.40;;;1.30;99.90;;;;;;5041267;28;20383;-82
2023/03/05 04:45:03;;;;;;;0.50;0.50;;;1.20;99.90;;;;;;5025967;28;20858;-83
2023/03/05 04:47:28;;;;;;;0.60;0.60;;;1.10;99.90;;;;;;5033446;28;20195;-82
2023/03/05 04:49:54;;;;;;;0.40;0.40;;;1.20;99.90;;;;;;5032762;28;20532;-83
2023/03/05 04:52:20;;;;;;;0.50;0.50;;;1.10;99.90;;;;;;5030956;28;20180;-82
2023/03/05 04:54:45;;;;;;;0.50;0.50;;;1.10;99.90;;;;;;5028684;28;20277;-82
2023/03/05 04:57:11;;;;;;;0.50;0.50;;;1.00;99.90;;;;;;5011174;28;20275;-82
2023/03/05 04:59:37;;;;;;;0.50;0.50;;;1.10;99.90;;;;;;5031389;28;20199;-82
2023/03/05 05:02:03;;;;;;;0.40;0.40;;;1.10;99.90;;;;;;5026746;28;20274;-82
2023/03/05 05:04:29;;;;;;;0.40;0.40;;;1.00;99.90;;;;;;5031010;28;20811;-83
2023/03/05 05:06:56;;;;;;;0.40;0.40;;;1.00;99.90;;;;;;5031571;28;20482;-82
2023/03/05 05:09:23;;;;;;;0.40;0.40;;;1.10;99.90;;;;;;5031317;28;20441;-82
2023/03/05 05:11:49;;;;;;;0.47;0.47;;;1.10;99.90;;;;;;5011118;28;20455;-82
2023/03/05 05:14:14;;;;;;;0.50;0.50;;;1.10;99.90;;;;;;5044691;28;20825;-82
2023/03/05 05:16:40;;;;;;;0.50;0.50;;;1.10;99.90;;;;;;5030978;28;20183;-82
2023/03/05 05:19:07;;;;;;;0.40;0.40;;;0.90;99.90;;;;;;5031611;28;20888;-82
2023/03/05 05:21:32;;;;;;;0.50;0.50;;;0.90;99.90;;;;;;5031161;28;20211;-82
2023/03/05 05:23:58;;;;;;;0.50;0.50;;;0.90;99.90;;;;;;5030841;28;20525;-82
2023/03/05 05:26:23;;;;;;;0.50;0.50;;;0.90;99.90;;;;;;5029754;28;20241;-82
2023/03/05 05:28:49;;;;;;;0.40;0.40;;;0.80;99.90;;;;;;5030525;28;20188;-83
2023/03/05 05:31:15;;;;;;;0.40;0.40;;;0.90;99.90;;;;;;5030979;28;20198;-83
2023/03/05 05:33:41;;;;;;;0.40;0.40;;;0.80;99.90;;;;;;5025770;28;20190;-82
2023/03/05 05:36:10;;;;;;;0.40;0.40;;;0.90;99.90;;;;;;5030477;28;20941;-83
2023/03/05 05:38:35;;;;;;;0.40;0.40;;;0.90;99.90;;;;;;5013371;28;20438;-82
2023/03/05 05:41:06;;;;;;;0.50;0.50;;;0.80;99.90;;;;;;5026540;28;20992;-82
2023/03/05 05:43:32;;;;;;;0.50;0.50;;;0.90;99.90;;;;;;5016388;28;20200;-81
2023/03/05 05:46:03;;;;;;;0.50;0.50;;;1.00;99.90;;;;;;5034630;28;20477;-82
2023/03/05 05:48:30;;;;;;;0.50;0.50;;;1.00;99.90;;;;;;5013670;28;20977;-82
2023/03/05 05:50:56;;;;;;;0.50;0.50;;;0.80;99.90;;;;;;5021080;28;20478;-82
2023/03/05 05:53:22;;;;;;;0.50;0.50;;;0.90;99.90;;;;;;5014184;28;21128;-82
2023/03/05 05:55:48;;;;;;;0.30;0.30;;;0.90;99.90;;;;;;5034733;28;20472;-82
2023/03/05 05:58:13;;;;;;;0.60;0.60;;;0.80;99.90;;;;;;5015161;28;20525;-81
2023/03/05 06:00:39;;;;;;;0.50;0.50;;;0.80;99.90;;;;;;5029239;28;20289;-83
2023/03/05 06:03:04;;;;;;;0.50;0.50;;;0.70;99.90;;;;;;5034463;28;20194;-82
2023/03/05 06:05:30;;;;;;;0.50;0.50;;;0.80;99.90;;;;;;5020742;28;20176;-82
2023/03/05 06:07:55;;;;;;;0.60;0.60;;;0.80;99.90;;;;;;5028097;28;20835;-82
2023/03/05 06:10:20;;;;;;;0.40;0.40;;;0.80;99.90;;;;;;5031146;28;20190;-82
2023/03/05 06:12:46;;;;;;;0.40;0.40;;;0.80;99.90;;;;;;5012794;28;20184;-83
2023/03/05 06:15:11;;;;;;;0.50;0.50;;;0.80;99.90;;;;;;5023539;28;20557;-81
2023/03/05 06:17:37;;;;;;;0.57;0.57;;;0.70;99.90;;;;;;5030694;28;20667;-82
2023/03/05 06:20:05;;;;;;;0.50;0.50;;;0.80;99.90;;;;;;5031310;28;20246;-82
2023/03/05 06:22:31;;;;;;;0.53;0.53;;;0.70;99.90;;;;;;5029013;28;20191;-82
2023/03/05 06:24:56;;;;;;;0.50;0.50;;;0.60;99.90;;;;;;5041067;28;20524;-82
2023/03/05 06:27:22;;;;;;;0.50;0.50;;;0.70;99.90;;;;;;5033003;28;20729;-82
2023/03/05 06:29:51;;;;;;;0.50;0.50;;;0.80;99.90;;;;;;5025098;28;20207;-82
2023/03/05 06:32:17;;;;;;;0.60;0.60;;;0.80;99.90;;;;;;5037184;28;20611;-82
2023/03/05 06:34:42;;;;;;;0.47;0.47;;;0.70;99.90;;;;;;5017323;28;20492;-83
2023/03/05 06:37:08;;;;;;;0.50;0.50;;;0.70;99.90;;;;;;5025538;28;20234;-83
2023/03/05 06:39:33;;;;;;;0.50;0.50;;;0.90;99.90;;;;;;5004694;28;20199;-83
2023/03/05 06:41:58;;;;;;;0.50;0.50;;;0.90;99.90;;;;;;5019042;28;20235;-83
2023/03/05 06:44:24;;;;;;;0.40;0.40;;;0.90;99.90;;;;;;5003994;28;20185;-83
2023/03/05 06:46:50;;;;;;;0.60;0.60;;;0.80;99.90;;;;;;5007294;28;20188;-83
2023/03/05 06:49:15;;;;;;;0.40;0.40;;;0.90;99.90;;;;;;5010212;28;20299;-83
2023/03/05 06:51:41;;;;;;;0.50;0.50;;;0.80;99.90;;;;;;5008088;28;20184;-83
2023/03/05 06:54:15;;;;;;;0.60;0.60;;;0.90;99.90;;;;;;5008928;28;20192;-83
2023/03/05 06:56:43;;;;;;;0.40;0.40;;;1.00;99.90;;;;;;5009691;28;20184;-83
2023/03/05 06:59:10;;;;;;;0.40;0.40;;;1.00;99.90;;;;;;5009878;28;20453;-83
2023/03/05 07:01:36;;;;;;;0.50;0.50;;;1.00;99.90;;;;;;5009625;28;20495;-83
2023/03/05 07:04:02;;;;;;;0.40;0.40;;;1.10;99.90;;;;;;5008519;28;20450;-84
2023/03/05 07:06:30;;;;;;;0.50;0.50;;;1.10;99.90;;;;;;5007473;28;20245;-82
2023/03/05 07:08:57;;;;;;;0.50;0.50;;;1.10;99.90;;;;;;5009445;28;20527;-83
2023/03/05 07:11:23;;;;;;;0.50;0.50;;;1.00;99.90;;;;;;5009232;28;20474;-83
2023/03/05 07:13:50;;;;;;;0.50;0.50;;;1.10;99.90;;;;;;4999512;28;20450;-83
2023/03/05 07:16:24;;;;;;;0.50;0.50;;;1.30;99.90;;;;;;5008187;28;20455;-84
2023/03/05 07:18:50;;;;;;;0.47;0.47;;;1.50;99.90;;;;;;5007111;28;20455;-83
2023/03/05 07:21:25;;;;;;;0.40;0.40;;;1.80;99.90;;;;;;4999159;28;20578;-84
2023/03/05 07:23:53;;;;;;;0.50;0.50;;;2.10;99.90;;;;;;4994452;28;20568;-84
2023/03/05 07:26:19;;;;;;;0.40;0.40;;;2.40;99.90;;;;;;5004402;28;20444;-83
2023/03/05 07:28:46;;;;;;;0.50;0.50;;;2.60;99.90;;;;;;5007979;28;20431;-83
2023/03/05 07:31:15;;;;;;;0.40;0.40;;;2.90;99.90;;;;;;5007770;28;20462;-83
2023/03/05 07:33:41;;;;;;;0.50;0.50;;;2.80;99.90;;;;;;5005033;28;20957;-83
2023/03/05 07:36:08;;;;;;;0.50;0.50;;;2.80;99.90;;;;;;5003032;28;20482;-83
2023/03/05 07:38:34;;;;;;;0.40;0.40;;;3.00;99.90;;;;;;5004121;28;20184;-83
2023/03/05 07:41:08;;;;;;;0.50;0.50;;;2.90;99.90;;;;;;5005907;28;20486;-83
2023/03/05 07:43:34;;;;;;;0.40;0.40;;;2.90;99.90;;;;;;5025108;28;20446;-82
2023/03/05 07:46:02;;;;;;;0.40;0.40;;;3.00;99.90;;;;;;5026360;28;21064;-82
2023/03/05 07:48:27;;;;;;;0.40;0.40;;;2.80;99.90;;;;;;5027304;28;20194;-83
2023/03/05 07:51:00;;;;;;;0.50;0.50;;;2.70;99.90;;;;;;5023784;28;20453;-83
2023/03/05 07:53:26;;;;;;;0.40;0.40;;;2.80;99.90;;;;;;5028182;28;20190;-82
2023/03/05 07:55:51;;;;;;;0.40;0.40;;;2.70;99.90;;;;;;5029859;28;20442;-82
2023/03/05 07:58:17;;;;;;;0.50;0.50;;;2.40;99.90;;;;;;5019413;28;20274;-83
2023/03/05 08:00:43;;;;;;;0.40;0.40;;;2.60;99.90;;;;;;5025077;28;20281;-82
2023/03/05 08:03:08;;;;;;;0.40;0.40;;;2.60;99.90;;;;;;5031337;28;20512;-82
2023/03/05 08:05:34;;;;;;;0.50;0.50;;;2.50;99.90;;;;;;5027310;28;20190;-82
2023/03/05 08:07:59;;;;;;;0.30;0.30;;;2.30;99.90;;;;;;5030775;28;20190;-82
2023/03/05 08:10:25;;;;;;;0.40;0.40;;;2.30;99.90;;;;;;5044379;28;20260;-82
2023/03/05 08:12:50;;;;;;;0.40;0.40;;;2.70;99.90;;;;;;5032327;28;20233;-83
2023/03/05 08:15:16;;;;;;;0.40;0.40;;;3.30;99.90;;;;;;5031576;28;20194;-82
2023/03/05 08:17:41;;;;;;;0.40;0.40;;;3.70;99.90;;;;;;5029844;28;20669;-82
2023/03/05 08:20:10;;;;;;;0.40;0.40;;;3.80;99.90;;;;;;5026654;28;20215;-82
2023/03/05 08:22:36;;;;;;;0.40;0.40;;;3.80;99.90;;;;;;5012698;28;20561;-82
2023/03/05 08:25:03;;;;;;;0.40;0.40;;;4.10;99.90;;;;;;5045495;28;20455;-81
2023/03/05 08:27:29;;;;;;;0.33;0.33;;;4.10;99.90;;;;;;5034511;28;21042;-82
2023/03/05 08:29:54;;;;;;;0.33;0.33;;;4.40;99.90;;;;;;5041776;28;20502;-82
2023/03/05 08:32:20;;;;;;;0.40;0.40;;;4.40;99.90;;;;;;5026562;28;20188;-82
2023/03/05 08:34:45;;;;;;;0.30;0.30;;;4.60;99.90;;;;;;5038822;28;20199;-81
2023/03/05 08:37:11;;;;;;;0.40;0.40;;;4.50;99.90;;;;;;5032759;28;20553;-80
2023/03/05 08:39:36;;;;;;;0.30;0.30;;;4.70;99.90;;;;;;5012085;28;20190;-81
2023/03/05 08:42:03;;;;;;;0.30;0.30;;;4.90;99.90;;;;;;5028515;28;20240;-82
2023/03/05 08:44:29;;;;;;;0.30;0.30;;;4.90;99.90;;;;;;5026038;28;20630;-81
2023/03/05 08:46:54;;;;;;;0.30;0.30;;;4.70;99.90;;;;;;5027614;28;20453;-83
2023/03/05 08:49:20;;;;;;;0.30;0.30;;;4.80;99.90;;;;;;5031111;28;20988;-83
2023/03/05 08:51:45;;;;;;;0.30;0.30;;;4.80;99.90;;;;;;5016555;28;20184;-83
2023/03/05 08:54:11;;;;;;;0.30;0.30;;;4.80;99.90;;;;;;5017267;28;20180;-83
2023/03/05 08:56:36;;;;;;;0.40;0.40;;;5.10;99.90;;;;;;5030529;28;20669;-82
2023/03/05 08:59:03;;;;;;;0.30;0.30;;;5.30;99.90;;;;;;5037630;28;20255;-83
2023/03/05 09:01:30;;;;;;;0.30;0.30;;;5.60;99.90;;;;;;5033999;28;20423;-83
2023/03/05 09:03:57;;;;;;;0.30;0.30;;;5.90;99.90;;;;;;5027850;28;20534;-82
2023/03/05 09:06:22;;;;;;;0.30;0.30;;;6.20;99.90;;;;;;5026532;28;20450;-83
2023/03/05 09:08:48;;;;;;;0.30;0.30;;;5.90;99.90;;;;;;5028615;28;20721;-83
2023/03/05 09:11:15;;;;;;;0.30;0.30;;;6.60;99.90;;;;;;5023464;28;21162;-82
2023/03/05 09:13:41;;;;;;;0.30;0.30;;;6.40;99.90;;;;;;5028108;28;20197;-83
2023/03/05 09:16:10;;;;;;;0.30;0.30;;;6.70;99.90;;;;;;5027870;28;20450;-80
2023/03/05 09:18:36;;;;;;;0.30;0.30;;;6.60;99.90;;;;;;5026598;28;20612;-80
2023/03/05 09:21:11;;;;;;;0.30;0.30;;;6.80;99.90;;;;;;5033025;28;20572;-83
2023/03/05 09:23:36;;;;;;;0.30;0.30;;;6.60;99.90;;;;;;5039613;28;20190;-83
2023/03/05 09:26:05;;;;;;;0.30;0.30;;;6.40;99.90;;;;;;5046589;28;20451;-83
2023/03/05 09:28:31;;;;;;;0.30;0.30;;;6.60;99.90;;;;;;5036995;28;20243;-83
2023/03/05 09:30:56;;;;;;;0.30;0.30;;;6.80;99.90;;;;;;5047245;28;20492;-83
2023/03/05 09:33:22;;;;;;;0.23;0.23;;;6.70;99.90;;;;;;5021906;28;20214;-84
2023/03/05 09:35:47;;;;;;;0.20;0.20;;;6.00;99.90;;;;;;5014262;28;20196;-83
2023/03/05 09:38:13;;;;;;;0.30;0.30;;;5.80;99.90;;;;;;5024867;28;20189;-83
2023/03/05 09:40:47;;;;;;;0.30;0.30;;;5.80;99.90;;;;;;5011491;28;20231;-83
2023/03/05 09:43:31;;;;;;;0.23;0.23;;;6.20;99.90;;;;;;5012606;28;20195;-82
2023/03/05 09:46:12;;;;;;;0.30;0.30;;;6.10;99.90;;;;;;5028615;28;20442;-83
2023/03/05 09:48:55;;;;;;;0.30;0.30;;;5.90;99.90;;;;;;5031960;28;20443;-83
2023/03/05 09:51:28;;;;;;;0.20;0.20;;;6.00;99.90;;;;;;5032118;28;20422;-83
2023/03/05 09:54:14;;;;;;;0.30;0.30;;;6.00;99.90;;;;;;5017022;28;20477;-83
2023/03/05 09:56:44;;;;;;;0.30;0.30;;;6.50;99.90;;;;;;5023354;28;20446;-83
2023/03/05 09:59:12;;;;;;;0.30;0.30;;;6.30;99.90;;;;;;5032639;28;20431;-83
2023/03/05 10:01:41;;;;;;;0.30;0.30;;;6.10;99.90;;;;;;5041223;28;20799;-83
2023/03/05 10:04:15;;;;;;;0.30;0.30;;;5.80;99.90;;;;;;5032670;28;20469;-83
2023/03/05 10:07:01;;;;;;;0.30;0.30;;;5.50;99.90;;;;;;5049258;28;20433;-84
2023/03/05 10:09:46;;;;;;;0.30;0.30;;;6.00;99.90;;;;;;5027164;28;20530;-83
2023/03/05 10:12:26;;;;;;;0.30;0.30;;;6.90;99.90;;;;;;5029504;28;20439;-81
2023/03/05 10:14:53;;;;;;;0.30;0.30;;;8.30;99.90;;;;;;5025370;28;20512;-81
2023/03/05 10:17:46;;;;;;;0.20;0.20;;;8.30;99.90;;;;;;5017336;28;20497;-80
2023/03/05 10:20:23;;;;;;;0.30;0.30;;;7.30;99.90;;;;;;5028932;28;20473;-81
2023/03/05 10:23:00;;;;;;;0.30;0.30;;;8.10;99.90;;;;;;5024947;28;21179;-81
2023/03/05 10:25:48;;;;;;;0.30;0.30;;;8.90;99.90;;;;;;5007598;28;20438;-81
2023/03/05 10:28:22;;;;;;;0.17;0.17;;;8.70;99.90;;;;;;5026509;28;20517;-82
2023/03/05 10:31:09;;;;;;;0.27;0.27;;;9.10;99.90;;;;;;5026616;28;20448;-80
2023/03/05 10:33:57;;;;;;;0.30;0.30;;;9.10;99.90;;;;;;5026905;28;20434;-82
2023/03/05 10:36:25;;;;;;;0.20;0.20;;;6.80;99.90;;;;;;5035247;28;20965;-83
2023/03/05 10:38:58;;;;;;;0.30;0.30;;;7.90;99.90;;;;;;5028474;28;20863;-81
2023/03/05 10:41:55;;;;;;;0.30;0.30;;;8.20;99.90;;;;;;5022802;28;20544;-83
2023/03/05 10:44:31;;;;;;;0.30;0.30;;;7.40;99.90;;;;;;5018382;28;20441;-83
2023/03/05 10:46:58;;;;;;;0.30;0.30;;;7.00;99.90;;;;;;5019143;28;20932;-82
2023/03/05 10:49:31;;;;;;;0.30;0.30;;;6.60;99.90;;;;;;5038189;28;20461;-83
2023/03/05 10:52:07;;;;;;;0.30;0.30;;;6.60;99.90;;;;;;5028388;28;20449;-79
2023/03/05 10:54:34;;;;;;;0.30;0.30;;;6.80;99.90;;;;;;5014658;28;20861;-82
2023/03/05 10:57:26;;;;;;;0.30;0.30;;;7.80;99.90;;;;;;5022279;28;20448;-79
2023/03/05 11:00:13;;;;;;;0.20;0.20;;;7.30;99.90;;;;;;5039519;28;20457;-82
2023/03/05 11:03:01;;;;;;;0.20;0.20;;;6.90;99.90;;;;;;5026056;28;20449;-79
2023/03/05 11:05:45;;;;;;;0.30;0.30;;;6.60;99.90;;;;;;5025520;28;20577;-80
2023/03/05 11:08:22;;;;;;;0.30;0.30;;;6.40;99.90;;;;;;5032209;28;20441;-82
2023/03/05 11:11:13;;;;;;;0.30;0.30;;;6.10;99.90;;;;;;5026380;28;20453;-82
2023/03/05 11:13:55;;;;;;;0.30;0.30;;;6.00;99.90;;;;;;5031604;28;21001;-82
2023/03/05 11:16:27;;;;;;;0.30;0.30;;;6.00;99.90;;;;;;5021100;28;20453;-82
2023/03/05 11:19:17;;;;;;;0.30;0.30;;;7.10;99.90;;;;;;5028789;28;20442;-82
2023/03/05 11:21:44;;;;;;;0.30;0.30;;;7.10;99.90;;;;;;5034616;28;20895;-82
2023/03/05 11:24:13;;;;;;;0.30;0.30;;;7.00;99.90;;;;;;5029726;28;20427;-77
2023/03/05 11:26:49;;;;;;;0.30;0.30;;;6.80;99.90;;;;;;5025532;28;20454;-78
2023/03/05 11:29:31;;;;;;;0.30;0.30;;;6.60;99.90;;;;;;5028897;28;20468;-78
2023/03/05 11:32:16;;;;;;;0.30;0.30;;;6.10;99.90;;;;;;5010204;28;20447;-77
2023/03/05 11:34:41;;;;;;;0.30;0.30;;;5.90;99.90;;;;;;5030872;28;20499;-79
2023/03/05 11:37:21;;;;;;;0.30;0.30;;;5.70;99.90;;;;;;5024072;28;20450;-81
2023/03/05 11:39:46;;;;;;;0.30;0.30;;;5.70;99.90;;;;;;5025138;28;20197;-81
2023/03/05 11:42:15;;;;;;;0.30;0.30;;;5.80;99.90;;;;;;5016384;28;21121;-81
2023/03/05 11:44:51;;;;;;;0.30;0.30;;;5.80;99.90;;;;;;5031523;28;20293;-80
2023/03/05 11:47:41;;;;;;;0.30;0.30;;;6.40;99.90;;;;;;5031386;28;20453;-81
2023/03/05 11:50:30;;;;;;;0.30;0.30;;;7.70;99.90;;;;;;5019017;28;20800;-78
2023/03/05 11:53:20;;;;;;;0.30;0.30;;;7.60;99.90;;;;;;5011987;28;20930;-78
2023/03/05 11:55:54;;;;;;;0.30;0.30;;;6.90;99.90;;;;;;5018481;28;20452;-81
2023/03/05 11:58:50;;;;;;;0.30;0.30;;;6.20;99.90;;;;;;5021345;28;20507;-81
2023/03/05 12:01:23;;;;;;;0.20;0.20;;;6.20;99.90;;;;;;5001720;28;21032;-82
2023/03/05 12:03:50;;;;;;;0.30;0.30;;;5.80;99.90;;;;;;5023706;28;20816;-80
2023/03/05 12:06:27;;;;;;;0.30;0.30;;;5.90;99.90;;;;;;5030748;28;20512;-81
2023/03/05 12:09:00;;;;;;;0.30;0.30;;;6.20;99.90;;;;;;5011943;28;21218;-81
2023/03/05 12:11:33;;;;;;;0.27;0.27;;;6.20;99.90;;;;;;5026413;28;20459;-81
2023/03/05 12:14:12;;;;;;;0.30;0.30;;;6.80;99.90;;;;;;5037717;28;20450;-82
2023/03/05 12:16:57;;;;;;;0.30;0.30;;;8.00;99.90;;;;;;5039684;28;20464;-82
2023/03/05 12:19:57;;;;;;;0.30;0.30;;;8.00;99.90;;;;;;5017425;28;20449;-79
2023/03/05 12:22:30;;;;;;;0.20;0.20;;;7.70;99.90;;;;;;4988095;28;21048;-79
2023/03/05 12:25:38;;;;;;;0.20;0.20;;;7.30;99.90;;;;;;5044037;28;20459;-81
2023/03/05 12:28:04;;;;;;;0.30;0.30;;;6.20;99.90;;;;;;5030509;28;20434;-80
2023/03/05 12:30:32;;;;;;;0.30;0.30;;;6.10;99.90;;;;;;5041016;28;20461;-81
2023/03/05 12:32:59;;;;;;;0.40;0.40;;;6.00;99.90;;;;;;5028194;28;20191;-81
2023/03/05 12:35:35;;;;;;;0.30;0.30;;;5.90;99.90;;;;;;5033939;28;20565;-79
2023/03/05 12:38:15;;;;;;;0.37;0.37;;;5.70;99.90;;;;;;5031089;28;20435;-81
2023/03/05 12:40:41;;;;;;;0.40;0.40;;;5.30;99.90;;;;;;5017747;28;20489;-80
2023/03/05 12:43:36;;;;;;;0.40;0.40;;;4.60;99.90;;;;;;5024493;28;20477;-81
2023/03/05 12:46:27;;;;;;;0.30;0.30;;;4.70;99.90;;;;;;5009784;28;20187;-81
2023/03/05 12:48:53;;;;;;;0.33;0.33;;;4.90;99.90;;;;;;5031962;28;20485;-81
2023/03/05 12:51:38;;;;;;;0.40;0.40;;;5.30;99.90;;;;;;5030966;28;20490;-81
2023/03/05 12:54:31;;;;;;;0.30;0.30;;;5.20;99.90;;;;;;5033012;28;20287;-81
2023/03/05 12:57:00;;;;;;;0.40;0.40;;;5.40;99.90;;;;;;5027845;28;20520;-82
2023/03/05 12:59:56;;;;;;;0.40;0.40;;;5.80;99.90;;;;;;5022161;28;20444;-82
2023/03/05 13:02:33;;;;;;;0.30;0.30;;;5.90;99.90;;;;;;5015568;28;20471;-81
2023/03/05 13:05:13;;;;;;;0.30;0.30;;;6.60;99.90;;;;;;5041716;28;20510;-81
2023/03/05 13:07:38;;;;;;;0.30;0.30;;;6.60;99.90;;;;;;5030270;28;20917;-82
2023/03/05 13:10:04;;;;;;;0.30;0.30;;;7.20;99.90;;;;;;5034156;28;20453;-79